createdAt,value
2017-06-10T00:01:08.528Z,22.80
2017-06-10T00:03:36.167Z,20.80
2017-06-10T00:06:03.638Z,21.77
2017-06-10T00:08:31.105Z,21.47
2017-06-10T00:10:58.606Z,21.40
2017-06-10T00:13:26.347Z,21.40
2017-06-10T00:15:53.839Z,23.90
2017-06-10T00:18:21.802Z,16.90
2017-06-10T00:20:49.290Z,23.00
2017-06-10T00:23:16.769Z,17.93
2017-06-10T00:25:44.404Z,19.17
2017-06-10T00:28:11.877Z,25.73
2017-06-10T00:30:39.357Z,19.47
2017-06-10T00:33:06.842Z,25.43
2017-06-10T00:35:34.709Z,16.97
2017-06-10T00:38:02.185Z,15.57
2017-06-10T00:40:29.819Z,20.77
2017-06-10T00:42:57.294Z,22.43
2017-06-10T00:45:25.170Z,23.37
2017-06-10T00:47:52.905Z,14.70
2017-06-10T00:50:20.790Z,17.80
2017-06-10T00:52:48.263Z,21.30
2017-06-10T00:55:16.738Z,21.33
2017-06-10T00:57:44.208Z,18.40
2017-06-10T01:00:11.685Z,16.47
2017-06-10T01:02:39.498Z,18.83
2017-06-10T01:05:06.974Z,21.77
2017-06-10T01:07:34.466Z,16.17
2017-06-10T01:10:02.119Z,17.47
2017-06-10T01:12:29.593Z,16.50
2017-06-10T01:14:57.061Z,13.73
2017-06-10T01:17:25.090Z,20.33
2017-06-10T01:19:52.558Z,18.77
2017-06-10T01:22:20.036Z,25.80
2017-06-10T01:24:47.774Z,16.53
2017-06-10T01:27:15.242Z,18.27
2017-06-10T01:29:43.125Z,16.43
2017-06-10T01:32:10.785Z,19.00
2017-06-10T01:34:38.659Z,20.13
2017-06-10T01:37:06.141Z,19.17
2017-06-10T01:39:33.858Z,16.83
2017-06-10T01:42:01.739Z,18.57
2017-06-10T01:44:29.618Z,16.83
2017-06-10T01:46:57.242Z,16.77
2017-06-10T01:49:24.718Z,17.23
2017-06-10T01:51:52.585Z,17.57
2017-06-10T01:54:20.605Z,21.40
2017-06-10T01:56:48.098Z,23.03
2017-06-10T01:59:15.969Z,21.40
2017-06-10T02:01:43.861Z,23.93
2017-06-10T02:04:11.341Z,18.70
2017-06-10T02:06:38.819Z,18.03
2017-06-10T02:09:06.322Z,18.97
2017-06-10T02:11:33.789Z,18.17
2017-06-10T02:14:01.272Z,19.57
2017-06-10T02:16:29.061Z,18.27
2017-06-10T02:18:56.526Z,16.80
2017-06-10T02:21:24.015Z,18.93
2017-06-10T02:23:51.837Z,18.47
2017-06-10T02:26:19.716Z,18.33
2017-06-10T02:28:47.188Z,19.57
2017-06-10T02:31:14.714Z,18.43
2017-06-10T02:33:42.665Z,17.13
2017-06-10T02:36:10.749Z,23.70
2017-06-10T02:38:38.931Z,18.63
2017-06-10T02:41:06.408Z,17.63
2017-06-10T02:43:33.892Z,15.07
2017-06-10T02:46:01.388Z,17.20
2017-06-10T02:48:28.852Z,15.53
2017-06-10T02:50:56.723Z,17.30
2017-06-10T02:53:24.625Z,16.10
2017-06-10T02:55:52.103Z,15.70
2017-06-10T02:58:19.565Z,19.23
2017-06-10T03:00:47.348Z,20.83
2017-06-10T03:03:14.827Z,16.13
2017-06-10T03:05:42.682Z,14.60
2017-06-10T03:08:10.741Z,17.00
2017-06-10T03:10:38.209Z,20.90
2017-06-10T03:13:06.073Z,18.53
2017-06-10T03:15:33.983Z,18.57
2017-06-10T03:18:01.441Z,15.57
2017-06-10T03:20:28.914Z,18.27
2017-06-10T03:22:56.409Z,17.97
2017-06-10T03:25:24.269Z,24.07
2017-06-10T03:27:51.737Z,18.90
2017-06-10T03:30:19.348Z,17.20
2017-06-10T03:32:46.821Z,18.03
2017-06-10T03:35:14.285Z,18.03
2017-06-10T03:37:42.302Z,16.07
2017-06-10T03:40:09.770Z,20.23
2017-06-10T03:42:37.615Z,24.13
2017-06-10T03:45:05.252Z,17.70
2017-06-10T03:47:33.121Z,22.00
2017-06-10T03:50:00.600Z,16.53
2017-06-10T03:52:28.221Z,21.27
2017-06-10T03:54:56.080Z,20.13
2017-06-10T03:57:23.948Z,12.90
2017-06-10T03:59:51.829Z,24.53
2017-06-10T04:02:19.317Z,24.80
2017-06-10T04:04:46.789Z,33.23
2017-06-10T04:07:14.285Z,18.53
2017-06-10T04:09:41.753Z,22.20
2017-06-10T04:12:09.224Z,14.87
2017-06-10T04:14:37.146Z,14.03
2017-06-10T04:17:04.614Z,17.70
2017-06-10T04:19:32.081Z,18.97
2017-06-10T04:22:00.553Z,18.40
2017-06-10T04:24:28.417Z,16.20
2017-06-10T04:26:55.881Z,16.07
2017-06-10T04:29:23.513Z,19.57
2017-06-10T04:31:51.395Z,18.57
2017-06-10T04:34:19.269Z,22.83
2017-06-10T04:36:46.860Z,14.47
2017-06-10T04:39:14.416Z,14.20
2017-06-10T04:41:42.336Z,16.30
2017-06-10T04:44:09.945Z,21.60
2017-06-10T04:46:37.435Z,19.70
2017-06-10T04:49:04.904Z,16.37
2017-06-10T04:51:32.542Z,15.27
2017-06-10T04:54:00.008Z,14.63
2017-06-10T04:56:27.480Z,22.27
2017-06-10T04:58:55.000Z,18.63
2017-06-10T05:01:22.466Z,18.07
2017-06-10T05:03:49.932Z,15.67
2017-06-10T05:06:17.844Z,18.60
2017-06-10T05:08:45.316Z,15.03
2017-06-10T05:11:12.781Z,18.57
2017-06-10T05:13:40.676Z,24.13
2017-06-10T05:16:08.504Z,19.40
2017-06-10T05:18:35.973Z,18.80
2017-06-10T05:21:03.465Z,21.40
2017-06-10T05:23:31.334Z,18.60
2017-06-10T05:25:59.199Z,17.70
2017-06-10T05:28:26.806Z,17.50
2017-06-10T05:30:54.279Z,25.10
2017-06-10T05:33:21.742Z,17.40
2017-06-10T05:35:50.333Z,23.80
2017-06-10T05:38:17.800Z,16.30
2017-06-10T05:40:45.672Z,20.60
2017-06-10T05:43:13.261Z,21.57
2017-06-10T05:45:40.928Z,19.47
2017-06-10T05:48:08.407Z,28.30
2017-06-10T05:50:36.049Z,17.90
2017-06-10T05:53:03.531Z,17.90
2017-06-10T05:55:30.996Z,22.03
2017-06-10T05:57:58.504Z,23.33
2017-06-10T06:00:25.977Z,19.60
2017-06-10T06:02:53.444Z,24.07
2017-06-10T06:05:21.229Z,22.10
2017-06-10T06:07:48.701Z,23.70
2017-06-10T06:10:16.184Z,20.30
2017-06-10T06:12:43.948Z,21.87
2017-06-10T06:15:11.421Z,20.63
2017-06-10T06:17:38.892Z,27.43
2017-06-10T06:20:06.398Z,21.00
2017-06-10T06:22:34.689Z,19.30
2017-06-10T06:25:02.171Z,27.40
2017-06-10T06:27:30.027Z,20.83
2017-06-10T06:29:57.505Z,24.33
2017-06-10T06:32:24.973Z,24.57
2017-06-10T06:34:52.881Z,24.63
2017-06-10T06:37:20.354Z,28.37
2017-06-10T06:39:47.851Z,23.13
2017-06-10T06:42:15.340Z,23.87
2017-06-10T06:44:42.907Z,25.83
2017-06-10T06:47:10.773Z,43.80
2017-06-10T06:49:38.265Z,18.80
2017-06-10T06:52:05.769Z,25.13
2017-06-10T06:54:33.245Z,19.93
2017-06-10T06:57:00.775Z,18.33
2017-06-10T06:59:28.251Z,18.83
2017-06-10T07:01:56.309Z,17.30
2017-06-10T07:04:23.792Z,29.53
2017-06-10T07:06:51.277Z,24.43
2017-06-10T07:09:18.810Z,19.17
2017-06-10T07:11:46.728Z,19.57
2017-06-10T07:14:14.228Z,18.33
2017-06-10T07:16:41.697Z,18.60
2017-06-10T07:19:09.344Z,23.67
2017-06-10T07:21:36.814Z,20.67
2017-06-10T07:24:04.281Z,19.40
2017-06-10T07:26:31.802Z,22.27
2017-06-10T07:28:59.293Z,19.47
2017-06-10T07:31:26.771Z,26.17
2017-06-10T07:33:54.723Z,18.53
2017-06-10T07:36:22.236Z,20.20
2017-06-10T07:38:49.713Z,23.23
2017-06-10T07:41:17.198Z,18.57
2017-06-10T07:43:45.088Z,22.70
2017-06-10T07:46:12.563Z,21.40
2017-06-10T07:48:40.190Z,20.47
2017-06-10T07:51:08.132Z,18.70
2017-06-10T07:53:35.596Z,14.30
2017-06-10T07:56:03.642Z,16.60
2017-06-10T07:58:31.109Z,18.47
2017-06-10T08:00:58.578Z,19.83
2017-06-10T08:03:26.549Z,12.17
2017-06-10T08:05:55.060Z,16.93
2017-06-10T08:08:22.524Z,14.17
2017-06-10T08:10:50.021Z,23.73
2017-06-10T08:13:17.504Z,18.27
2017-06-10T08:15:44.968Z,15.87
2017-06-10T08:18:12.476Z,14.83
2017-06-10T08:20:39.978Z,14.90
2017-06-10T08:23:07.841Z,16.27
2017-06-10T08:25:35.711Z,14.40
2017-06-10T08:28:03.201Z,15.20
2017-06-10T08:30:30.687Z,16.93
2017-06-10T08:32:58.191Z,11.50
2017-06-10T08:35:25.666Z,13.00
2017-06-10T08:37:53.145Z,11.90
2017-06-10T08:40:20.638Z,14.93
2017-06-10T08:42:48.145Z,11.57
2017-06-10T08:45:15.621Z,9.43
2017-06-10T08:47:43.122Z,11.90
2017-06-10T08:50:11.023Z,12.10
2017-06-10T08:52:38.506Z,11.37
2017-06-10T08:55:06.272Z,10.87
2017-06-10T08:57:34.345Z,13.93
2017-06-10T09:00:01.821Z,8.17
2017-06-10T09:02:29.337Z,11.30
2017-06-10T09:04:56.837Z,17.43
2017-06-10T09:07:24.323Z,12.00
2017-06-10T09:09:52.136Z,10.00
2017-06-10T09:12:19.609Z,14.67
2017-06-10T09:14:47.469Z,12.20
2017-06-10T09:17:15.628Z,10.73
2017-06-10T09:19:43.500Z,9.40
2017-06-10T09:22:10.977Z,13.63
2017-06-10T09:24:38.461Z,9.50
2017-06-10T09:27:05.960Z,10.53
2017-06-10T09:29:34.577Z,11.93
2017-06-10T09:32:02.077Z,13.53
2017-06-10T09:34:29.564Z,12.03
2017-06-10T09:36:57.426Z,9.93
2017-06-10T09:39:24.946Z,9.80
2017-06-10T09:41:52.441Z,8.50
2017-06-10T09:44:19.921Z,8.53
2017-06-10T09:46:47.853Z,16.40
2017-06-10T09:49:15.737Z,11.00
2017-06-10T09:51:44.020Z,7.53
2017-06-10T09:54:11.530Z,6.63
2017-06-10T09:56:39.353Z,8.63
2017-06-10T09:59:06.850Z,10.07
2017-06-10T10:01:34.492Z,11.00
2017-06-10T10:04:02.183Z,6.27
2017-06-10T10:06:29.641Z,6.27
2017-06-10T10:08:57.155Z,13.30
2017-06-10T10:11:24.647Z,6.03
2017-06-10T10:13:52.115Z,10.17
2017-06-10T10:16:19.765Z,6.53
2017-06-10T10:18:47.640Z,7.63
2017-06-10T10:21:15.512Z,9.17
2017-06-10T10:23:43.264Z,5.57
2017-06-10T10:26:11.169Z,6.83
2017-06-10T10:28:38.647Z,6.33
2017-06-10T10:31:06.261Z,11.60
2017-06-10T10:33:33.724Z,5.50
2017-06-10T10:36:01.193Z,7.33
2017-06-10T10:38:28.761Z,6.47
2017-06-10T10:40:56.265Z,8.03
2017-06-10T10:43:23.764Z,7.30
2017-06-10T10:45:51.485Z,6.70
2017-06-10T10:48:19.373Z,8.23
2017-06-10T10:50:46.852Z,7.60
2017-06-10T10:53:14.614Z,7.17
2017-06-10T10:55:42.091Z,9.50
2017-06-10T10:58:09.573Z,5.30
2017-06-10T11:00:37.613Z,7.80
2017-06-10T11:03:05.100Z,6.00
2017-06-10T11:05:38.104Z,7.97
2017-06-10T11:08:05.597Z,8.87
2017-06-10T11:10:33.081Z,6.37
2017-06-10T11:13:00.685Z,5.73
2017-06-10T11:15:28.150Z,8.03
2017-06-10T11:17:55.625Z,6.53
2017-06-10T11:20:23.139Z,5.93
2017-06-10T11:22:50.625Z,9.13
2017-06-10T11:25:18.083Z,5.33
2017-06-10T11:27:46.585Z,8.03
2017-06-10T11:30:14.397Z,10.50
2017-06-10T11:32:41.886Z,8.40
2017-06-10T11:35:09.502Z,8.23
2017-06-10T11:37:36.965Z,8.47
2017-06-10T11:40:04.443Z,5.70
2017-06-10T11:42:31.963Z,8.57
2017-06-10T11:44:59.458Z,7.03
2017-06-10T11:47:26.941Z,9.60
2017-06-10T11:49:54.454Z,8.40
2017-06-10T11:52:22.034Z,6.83
2017-06-10T11:54:49.530Z,8.53
2017-06-10T11:57:17.017Z,8.13
2017-06-10T11:59:44.494Z,9.03
2017-06-10T12:02:11.977Z,8.80
2017-06-10T12:04:39.781Z,6.13
2017-06-10T12:07:07.246Z,8.97
2017-06-10T12:09:34.709Z,9.60
2017-06-10T12:12:02.447Z,7.67
2017-06-10T12:14:30.317Z,16.73
2017-06-10T12:16:57.789Z,15.60
2017-06-10T12:19:26.284Z,24.57
2017-06-10T12:21:53.773Z,5.43
2017-06-10T12:24:21.255Z,9.07
2017-06-10T12:26:49.128Z,10.43
2017-06-10T12:29:16.614Z,8.47
2017-06-10T12:31:44.096Z,7.37
2017-06-10T12:34:11.601Z,8.00
2017-06-10T12:36:39.084Z,7.13
2017-06-10T12:39:07.169Z,7.93
2017-06-10T12:41:34.982Z,6.37
2017-06-10T12:44:02.452Z,5.93
2017-06-10T12:46:29.931Z,6.90
2017-06-10T12:48:57.789Z,7.07
2017-06-10T12:51:25.258Z,8.50
2017-06-10T12:53:52.751Z,8.13
2017-06-10T12:56:21.990Z,6.17
2017-06-10T12:58:49.517Z,6.27
2017-06-10T13:01:17.024Z,10.40
2017-06-10T13:03:45.100Z,8.07
2017-06-10T13:06:12.567Z,4.20
2017-06-10T13:08:40.055Z,5.60
2017-06-10T13:11:07.723Z,7.20
2017-06-10T13:13:35.231Z,5.50
2017-06-10T13:16:02.713Z,7.03
2017-06-10T13:18:30.205Z,4.83
2017-06-10T13:20:57.679Z,5.60
2017-06-10T13:23:25.155Z,7.70
2017-06-10T13:25:52.642Z,8.10
2017-06-10T13:28:20.113Z,7.23
2017-06-10T13:30:48.226Z,8.53
2017-06-10T13:33:16.976Z,8.23
2017-06-10T13:35:44.442Z,6.87
2017-06-10T13:38:11.921Z,7.30
2017-06-10T13:40:39.837Z,7.93
2017-06-10T13:43:07.743Z,7.90
2017-06-10T13:45:35.247Z,7.20
2017-06-10T13:48:03.362Z,5.23
2017-06-10T13:50:30.835Z,6.07
2017-06-10T13:52:58.316Z,9.37
2017-06-10T13:55:25.943Z,6.30
2017-06-10T13:57:53.624Z,13.47
2017-06-10T14:00:21.112Z,7.90
2017-06-10T14:02:49.047Z,5.73
2017-06-10T14:05:16.518Z,7.50
2017-06-10T14:07:44.013Z,4.90
2017-06-10T14:10:12.388Z,7.40
2017-06-10T14:12:39.877Z,8.80
2017-06-10T14:15:07.362Z,6.77
2017-06-10T14:17:35.755Z,6.77
2017-06-10T14:20:03.237Z,7.30
2017-06-10T14:22:30.718Z,5.80
2017-06-10T14:24:58.235Z,7.37
2017-06-10T14:27:26.111Z,5.33
2017-06-10T14:29:53.602Z,8.03
2017-06-10T14:32:21.374Z,6.70
2017-06-10T14:34:49.483Z,6.07
2017-06-10T14:37:17.362Z,6.13
2017-06-10T14:39:45.327Z,7.33
2017-06-10T14:42:12.804Z,5.43
2017-06-10T14:44:40.715Z,7.90
2017-06-10T14:47:08.408Z,7.53
2017-06-10T14:49:36.211Z,7.00
2017-06-10T14:52:03.676Z,5.77
2017-06-10T14:54:31.195Z,5.53
2017-06-10T14:56:58.675Z,6.90
2017-06-10T14:59:26.156Z,6.17
2017-06-10T15:01:53.791Z,9.30
2017-06-10T15:04:21.314Z,8.60
2017-06-10T15:06:48.793Z,22.33
2017-06-10T15:09:16.531Z,11.17
2017-06-10T15:11:44.403Z,11.83
2017-06-10T15:14:12.262Z,20.97
2017-06-10T15:16:39.774Z,8.17
2017-06-10T15:19:07.249Z,20.40
2017-06-10T15:21:34.722Z,16.13
2017-06-10T15:24:02.745Z,11.67
2017-06-10T15:26:30.230Z,5.83
2017-06-10T15:28:58.210Z,8.50
2017-06-10T15:31:25.963Z,8.60
2017-06-10T15:33:53.429Z,8.97
2017-06-10T15:36:21.285Z,6.87
2017-06-10T15:38:49.053Z,8.80
2017-06-10T15:41:16.520Z,9.70
2017-06-10T15:43:44.009Z,6.03
2017-06-10T15:46:11.731Z,8.07
2017-06-10T15:48:39.610Z,6.50
2017-06-10T15:51:07.098Z,7.57
2017-06-10T15:53:35.187Z,5.80
2017-06-10T15:56:03.559Z,6.73
2017-06-10T15:58:31.539Z,9.07
2017-06-10T16:00:59.721Z,8.10
2017-06-10T16:03:27.600Z,5.73
2017-06-10T16:05:55.084Z,7.10
2017-06-10T16:08:22.820Z,7.97
2017-06-10T16:10:50.313Z,8.30
2017-06-10T16:13:17.791Z,6.13
2017-06-10T16:15:45.327Z,5.60
2017-06-10T16:18:12.807Z,6.30
2017-06-10T16:20:40.291Z,9.77
2017-06-10T16:23:07.804Z,9.10
2017-06-10T16:25:35.277Z,5.23
2017-06-10T16:28:02.775Z,7.43
2017-06-10T16:30:31.592Z,5.13
2017-06-10T16:33:00.199Z,5.83
2017-06-10T16:35:27.685Z,8.70
2017-06-10T16:37:55.329Z,8.77
2017-06-10T16:40:22.797Z,8.63
2017-06-10T16:42:50.684Z,8.80
2017-06-10T16:45:18.228Z,8.50
2017-06-10T16:47:46.107Z,6.40
2017-06-10T16:50:13.568Z,7.47
2017-06-10T16:52:41.072Z,7.60
2017-06-10T16:55:08.563Z,8.00
2017-06-10T16:57:36.042Z,4.80
2017-06-10T17:00:03.989Z,9.20
2017-06-10T17:02:31.501Z,7.30
2017-06-10T17:04:58.995Z,6.27
2017-06-10T17:07:26.875Z,8.53
2017-06-10T17:09:54.342Z,8.40
2017-06-10T17:12:22.382Z,10.27
2017-06-10T17:14:51.224Z,6.67
2017-06-10T17:17:18.762Z,7.47
2017-06-10T17:19:46.234Z,9.53
2017-06-10T17:22:14.123Z,9.00
2017-06-10T17:24:41.607Z,6.03
2017-06-10T17:27:09.099Z,8.70
2017-06-10T17:29:36.718Z,7.90
2017-06-10T17:32:04.207Z,6.93
2017-06-10T17:34:31.703Z,7.37
2017-06-10T17:36:59.201Z,6.80
2017-06-10T17:39:26.670Z,7.33
2017-06-10T17:41:54.178Z,14.00
2017-06-10T17:44:21.967Z,10.57
2017-06-10T17:46:49.436Z,8.77
2017-06-10T17:49:16.911Z,8.73
2017-06-10T17:51:44.586Z,8.67
2017-06-10T17:54:12.073Z,10.60
2017-06-10T17:56:39.553Z,7.90
2017-06-10T17:59:07.162Z,6.37
2017-06-10T18:01:34.903Z,8.70
2017-06-10T18:04:02.365Z,8.13
2017-06-10T18:06:30.169Z,6.50
2017-06-10T18:08:57.647Z,6.47
2017-06-10T18:11:25.132Z,36.37
2017-06-10T18:13:53.225Z,31.20
2017-06-10T18:16:20.704Z,9.37
2017-06-10T18:18:48.189Z,10.87
2017-06-10T18:21:15.827Z,7.20
2017-06-10T18:23:48.951Z,10.00
2017-06-10T18:26:16.529Z,14.50
2017-06-10T18:28:44.022Z,10.73
2017-06-10T18:31:11.498Z,8.13
2017-06-10T18:33:39.761Z,9.80
2017-06-10T18:36:07.250Z,11.47
2017-06-10T18:38:35.228Z,10.10
2017-06-10T18:41:02.990Z,8.43
2017-06-10T18:43:30.484Z,10.87
2017-06-10T18:45:57.945Z,8.80
2017-06-10T18:48:25.716Z,12.87
2017-06-10T18:50:53.525Z,13.00
2017-06-10T18:53:21.169Z,14.00
2017-06-10T18:55:48.963Z,11.27
2017-06-10T18:58:16.452Z,11.47
2017-06-10T19:00:43.930Z,11.33
2017-06-10T19:03:11.778Z,11.60
2017-06-10T19:05:40.386Z,13.87
2017-06-10T19:08:08.369Z,12.10
2017-06-10T19:10:35.880Z,13.30
2017-06-10T19:13:03.365Z,11.10
2017-06-10T19:15:30.846Z,14.57
2017-06-10T19:17:58.345Z,15.63
2017-06-10T19:20:25.821Z,17.10
2017-06-10T19:22:53.316Z,18.20
2017-06-10T19:25:20.841Z,15.20
2017-06-10T19:27:48.336Z,16.40
2017-06-10T19:30:15.805Z,13.63
2017-06-10T19:32:43.330Z,14.73
2017-06-10T19:35:10.816Z,12.67
2017-06-10T19:37:38.292Z,15.20
2017-06-10T19:40:06.812Z,11.80
2017-06-10T19:42:34.314Z,12.90
2017-06-10T19:45:01.797Z,13.20
2017-06-10T19:47:29.299Z,12.50
2017-06-10T19:49:56.777Z,17.00
2017-06-10T19:52:24.269Z,15.40
2017-06-10T19:54:51.902Z,13.80
2017-06-10T19:57:19.869Z,19.10
2017-06-10T19:59:47.348Z,27.83
2017-06-10T20:02:15.167Z,19.63
2017-06-10T20:04:42.643Z,26.27
2017-06-10T20:07:10.130Z,21.13
2017-06-10T20:09:38.619Z,17.10
2017-06-10T20:12:06.105Z,15.13
2017-06-10T20:14:33.602Z,18.00
2017-06-10T20:17:01.231Z,93.40
2017-06-10T20:19:28.715Z,31.53
2017-06-10T20:21:56.188Z,30.90
2017-06-10T20:24:23.818Z,93.70
2017-06-10T20:26:51.285Z,68.17
2017-06-10T20:29:18.769Z,51.70
2017-06-10T20:31:46.270Z,53.73
2017-06-10T20:34:13.767Z,51.17
2017-06-10T20:36:41.235Z,55.40
2017-06-10T20:39:09.255Z,32.23
2017-06-10T20:41:36.728Z,21.90
2017-06-10T20:44:04.198Z,17.43
2017-06-10T20:46:32.205Z,21.03
2017-06-10T20:48:59.694Z,24.87
2017-06-10T20:51:27.184Z,23.60
2017-06-10T20:53:55.091Z,21.20
2017-06-10T20:56:22.567Z,19.93
2017-06-10T20:58:50.057Z,13.10
2017-06-10T21:01:17.671Z,19.23
2017-06-10T21:03:45.159Z,18.10
2017-06-10T21:06:12.639Z,32.53
2017-06-10T21:08:44.330Z,22.97
2017-06-10T21:11:12.308Z,13.23
2017-06-10T21:13:39.930Z,15.87
2017-06-10T21:16:07.415Z,12.37
2017-06-10T21:18:35.170Z,13.00
2017-06-10T21:21:02.914Z,13.67
2017-06-10T21:23:30.694Z,12.27
2017-06-10T21:25:58.191Z,11.93
2017-06-10T21:28:26.519Z,13.93
2017-06-10T21:30:54.008Z,14.60
2017-06-10T21:33:21.503Z,12.57
2017-06-10T21:35:49.124Z,14.13
2017-06-10T21:38:16.989Z,13.77
2017-06-10T21:40:44.458Z,16.53
2017-06-10T21:43:11.973Z,15.33
2017-06-10T21:45:39.479Z,15.30
2017-06-10T21:48:06.966Z,17.57
2017-06-10T21:50:34.594Z,16.53
2017-06-10T21:53:02.069Z,14.50
2017-06-10T21:55:29.548Z,16.13
2017-06-10T21:57:57.062Z,12.53
2017-06-10T22:00:24.937Z,13.33
2017-06-10T22:02:52.442Z,15.40
2017-06-10T22:05:20.145Z,12.63
2017-06-10T22:07:47.652Z,16.63
2017-06-10T22:10:16.036Z,15.43
2017-06-10T22:12:43.552Z,12.00
2017-06-10T22:15:11.025Z,15.53
2017-06-10T22:17:38.517Z,13.77
2017-06-10T22:20:06.312Z,18.63
2017-06-10T22:22:33.811Z,15.90
2017-06-10T22:25:01.308Z,13.77
2017-06-10T22:27:29.238Z,14.20
2017-06-10T22:29:56.721Z,15.80
2017-06-10T22:32:24.219Z,16.37
2017-06-10T22:34:52.076Z,16.30
2017-06-10T22:37:19.954Z,14.23
2017-06-10T22:39:47.436Z,16.47
2017-06-10T22:42:15.061Z,17.70
2017-06-10T22:44:42.539Z,16.77
2017-06-10T22:47:10.013Z,16.97
2017-06-10T22:49:37.849Z,17.27
2017-06-10T22:52:05.324Z,18.73
2017-06-10T22:54:32.788Z,16.07
2017-06-10T22:57:00.404Z,19.47
2017-06-10T22:59:27.904Z,17.30
2017-06-10T23:01:55.381Z,16.27
2017-06-10T23:04:23.035Z,15.23
2017-06-10T23:06:50.502Z,16.03
2017-06-10T23:09:17.989Z,17.30
2017-06-10T23:11:45.584Z,16.50
2017-06-10T23:14:13.059Z,13.70
2017-06-10T23:16:40.541Z,13.37
2017-06-10T23:19:08.297Z,17.90
2017-06-10T23:21:36.183Z,14.97
2017-06-10T23:24:03.670Z,13.93
2017-06-10T23:26:31.309Z,14.13
2017-06-10T23:28:58.785Z,15.73
2017-06-10T23:31:26.253Z,14.03
2017-06-10T23:33:54.053Z,15.33
2017-06-10T23:36:21.534Z,16.23
2017-06-10T23:38:49.009Z,15.53
2017-06-10T23:41:16.514Z,12.80
2017-06-10T23:43:43.989Z,14.40
2017-06-10T23:46:11.480Z,15.90
2017-06-10T23:48:38.997Z,14.23
2017-06-10T23:51:06.862Z,13.93
2017-06-10T23:53:34.334Z,15.30
2017-06-10T23:56:02.168Z,20.20
2017-06-10T23:58:29.650Z,15.90
